Time;durP1;ratioP1;P1;durP2;ratioP2;P2;SDS_P1;SDS_P2;PMS_P1;PMS_P2;Temp;Humidity;BMP_temperature;BMP_pressure;BME280_temperature;BME280_humidity;BME280_pressure;Samples;Min_cycle;Max_cycle;Signal;HPM_P1;HPM_P2
2023/05/11 00:01:12;;;;;;;4.50;4.20;;;17.30;99.90;;;;;;4987292;28;20242;-70
2023/05/11 00:03:38;;;;;;;4.60;4.23;;;17.20;99.90;;;;;;4987296;28;20309;-70
2023/05/11 00:06:05;;;;;;;4.37;3.97;;;17.20;99.90;;;;;;4987604;28;20309;-70
2023/05/11 00:08:32;;;;;;;4.50;4.10;;;17.10;99.90;;;;;;4987212;28;20717;-70
2023/05/11 00:11:00;;;;;;;4.13;3.87;;;17.10;99.90;;;;;;4987192;28;20767;-70
2023/05/11 00:13:27;;;;;;;4.23;3.90;;;17.10;99.90;;;;;;4986890;28;20206;-71
2023/05/11 00:15:56;;;;;;;3.80;3.60;;;17.00;99.90;;;;;;4987175;28;20207;-70
2023/05/11 00:18:22;;;;;;;4.23;3.93;;;17.00;99.90;;;;;;4986587;28;20202;-71
2023/05/11 00:20:49;;;;;;;3.93;3.73;;;17.00;99.90;;;;;;4986699;28;20940;-71
2023/05/11 00:23:16;;;;;;;4.20;3.80;;;16.90;99.90;;;;;;4987020;28;20325;-71
2023/05/11 00:25:43;;;;;;;4.10;3.90;;;16.90;99.90;;;;;;4986182;28;20708;-70
2023/05/11 00:28:10;;;;;;;4.33;4.03;;;16.90;99.90;;;;;;4986355;28;20855;-70
2023/05/11 00:30:37;;;;;;;4.13;3.93;;;16.80;99.90;;;;;;4986666;28;20610;-70
2023/05/11 00:33:05;;;;;;;5.50;4.03;;;16.80;99.90;;;;;;4986331;28;20210;-69
2023/05/11 00:35:32;;;;;;;5.17;4.00;;;16.70;99.90;;;;;;4986519;28;20733;-70
2023/05/11 00:37:59;;;;;;;4.53;4.07;;;16.70;99.90;;;;;;4986133;28;20276;-71
2023/05/11 00:40:26;;;;;;;5.67;4.10;;;16.70;99.90;;;;;;4986726;28;20236;-71
2023/05/11 00:42:53;;;;;;;4.27;3.97;;;16.70;99.90;;;;;;4985608;28;20293;-71
2023/05/11 00:45:20;;;;;;;4.40;4.10;;;16.70;99.90;;;;;;4985839;28;20735;-71
2023/05/11 00:47:47;;;;;;;3.90;3.60;;;16.60;99.90;;;;;;4986133;28;20222;-71
2023/05/11 00:50:15;;;;;;;4.50;4.10;;;16.60;99.90;;;;;;4985663;28;20209;-71
2023/05/11 00:52:42;;;;;;;4.23;3.93;;;16.60;99.90;;;;;;4986035;28;20226;-71
2023/05/11 00:55:11;;;;;;;4.30;4.07;;;16.50;99.90;;;;;;4985900;28;20360;-71
2023/05/11 00:57:38;;;;;;;4.27;3.97;;;16.50;99.90;;;;;;4986599;28;20198;-71
2023/05/11 01:00:07;;;;;;;4.40;4.10;;;16.50;99.90;;;;;;4985961;28;20218;-71
2023/05/11 01:02:34;;;;;;;3.70;3.50;;;16.40;99.90;;;;;;4986033;28;20237;-71
2023/05/11 01:05:01;;;;;;;4.47;4.07;;;16.40;99.90;;;;;;4985586;28;20325;-71
2023/05/11 01:07:34;;;;;;;4.63;4.33;;;16.40;99.90;;;;;;4986104;28;20237;-71
2023/05/11 01:10:09;;;;;;;4.20;4.00;;;16.30;99.90;;;;;;4985761;28;20195;-71
2023/05/11 01:12:45;;;;;;;4.60;4.30;;;16.30;99.90;;;;;;4985289;28;20640;-71
2023/05/11 01:15:16;;;;;;;4.40;4.10;;;16.30;99.90;;;;;;4985275;28;20202;-71
2023/05/11 01:17:51;;;;;;;4.70;4.37;;;16.30;99.90;;;;;;4985910;28;20300;-71
2023/05/11 01:20:21;;;;;;;4.70;4.30;;;16.30;99.90;;;;;;4985673;28;20236;-71
2023/05/11 01:23:30;;;;;;;4.80;4.50;;;16.30;99.90;;;;;;4985654;28;20206;-71
2023/05/11 01:26:11;;;;;;;4.60;4.20;;;16.20;99.90;;;;;;4935913;28;20291;-71
2023/05/11 01:29:07;;;;;;;4.50;4.30;;;16.20;99.90;;;;;;4985782;28;20214;-71
2023/05/11 01:31:40;;;;;;;4.37;4.07;;;16.20;99.90;;;;;;4982255;28;20269;-71
2023/05/11 01:34:12;;;;;;;4.33;4.03;;;16.10;99.90;;;;;;4985514;28;20213;-70
2023/05/11 01:36:51;;;;;;;4.40;4.10;;;16.20;99.90;;;;;;4986288;28;20685;-69
2023/05/11 01:39:22;;;;;;;4.47;4.17;;;16.10;99.90;;;;;;4985442;28;20198;-69
2023/05/11 01:41:53;;;;;;;4.63;4.33;;;16.10;99.90;;;;;;4985942;28;20226;-70
2023/05/11 01:44:23;;;;;;;4.83;4.33;;;16.10;99.90;;;;;;4985460;28;20230;-70
2023/05/11 01:46:53;;;;;;;4.50;4.20;;;16.10;99.90;;;;;;4985803;28;20194;-70
2023/05/11 01:49:21;;;;;;;4.63;4.33;;;16.00;99.90;;;;;;4985834;28;20214;-70
2023/05/11 01:51:50;;;;;;;4.67;4.33;;;16.00;99.90;;;;;;4985533;28;20206;-70
2023/05/11 01:54:20;;;;;;;3.97;3.73;;;16.00;99.90;;;;;;4985501;28;20699;-70
2023/05/11 01:56:49;;;;;;;5.10;4.70;;;16.00;99.90;;;;;;4985147;28;20252;-70
2023/05/11 01:59:18;;;;;;;4.07;3.73;;;16.00;99.90;;;;;;4985075;28;20304;-70
2023/05/11 02:01:45;;;;;;;4.53;4.10;;;15.90;99.90;;;;;;4985286;28;20675;-70
2023/05/11 02:04:14;;;;;;;4.27;3.97;;;15.90;99.90;;;;;;4985401;28;20214;-70
2023/05/11 02:06:42;;;;;;;4.90;4.37;;;15.90;99.90;;;;;;4985441;28;20213;-70
2023/05/11 02:09:11;;;;;;;4.67;4.37;;;15.90;99.90;;;;;;4985864;28;20682;-70
2023/05/11 02:11:41;;;;;;;4.50;4.20;;;15.90;99.90;;;;;;4985862;28;20301;-70
2023/05/11 02:14:10;;;;;;;4.93;4.53;;;15.90;99.90;;;;;;4985230;28;20213;-70
2023/05/11 02:16:38;;;;;;;5.10;4.70;;;15.80;99.90;;;;;;4985499;28;20202;-70
2023/05/11 02:19:07;;;;;;;4.80;4.50;;;15.80;99.90;;;;;;4993500;28;20780;-70
2023/05/11 02:21:37;;;;;;;6.10;4.67;;;15.80;99.90;;;;;;4998321;28;20345;-70
2023/05/11 02:24:06;;;;;;;5.23;4.77;;;15.80;99.90;;;;;;4991038;28;20208;-70
2023/05/11 02:26:33;;;;;;;5.17;4.77;;;15.70;99.90;;;;;;4994185;28;20238;-70
2023/05/11 02:29:00;;;;;;;5.47;5.10;;;15.70;99.90;;;;;;4991266;28;20207;-70
2023/05/11 02:31:29;;;;;;;5.90;5.40;;;15.70;99.90;;;;;;4993207;28;20304;-71
2023/05/11 02:34:00;;;;;;;5.20;4.90;;;15.60;99.90;;;;;;4988949;28;20210;-70
2023/05/11 02:36:29;;;;;;;5.13;4.73;;;15.60;99.90;;;;;;4988243;28;20241;-70
2023/05/11 02:39:03;;;;;;;7.00;5.70;;;15.60;99.90;;;;;;4987398;28;20233;-70
2023/05/11 02:41:31;;;;;;;6.10;5.53;;;15.60;99.90;;;;;;4987439;28;20317;-70
2023/05/11 02:44:03;;;;;;;8.27;7.63;;;15.60;99.90;;;;;;4987048;28;20309;-70
2023/05/11 02:46:34;;;;;;;7.87;7.27;;;15.60;99.90;;;;;;4986955;28;20296;-71
2023/05/11 02:49:05;;;;;;;8.00;7.30;;;15.60;99.90;;;;;;4974272;28;20226;-70
2023/05/11 02:51:36;;;;;;;8.50;7.80;;;15.60;99.90;;;;;;4986543;28;20206;-70
2023/05/11 02:54:10;;;;;;;9.20;8.40;;;15.60;99.90;;;;;;4986882;28;20222;-71
2023/05/11 02:56:37;;;;;;;10.00;9.23;;;15.60;99.90;;;;;;4983890;28;20679;-71
2023/05/11 02:59:05;;;;;;;10.03;9.23;;;15.60;99.90;;;;;;4986930;28;20321;-71
2023/05/11 03:01:33;;;;;;;9.67;8.70;;;15.50;99.90;;;;;;4987959;28;20325;-71
2023/05/11 03:04:00;;;;;;;9.40;8.57;;;15.50;99.90;;;;;;4987294;28;20216;-71
2023/05/11 03:06:26;;;;;;;9.03;8.27;;;15.50;99.90;;;;;;4987298;28;20688;-71
2023/05/11 03:08:53;;;;;;;9.73;8.93;;;15.50;99.90;;;;;;4987243;28;20669;-71
2023/05/11 03:11:22;;;;;;;9.93;8.93;;;15.50;99.90;;;;;;4987569;28;20217;-71
2023/05/11 03:13:50;;;;;;;11.03;10.03;;;15.40;99.90;;;;;;4987133;28;20218;-73
2023/05/11 03:16:17;;;;;;;11.00;10.00;;;15.40;99.90;;;;;;4987390;28;20217;-71
2023/05/11 03:18:45;;;;;;;10.33;9.40;;;15.40;99.90;;;;;;4987650;28;20209;-71
2023/05/11 03:21:14;;;;;;;9.77;8.90;;;15.30;99.90;;;;;;4987590;28;20264;-71
2023/05/11 03:23:41;;;;;;;9.80;8.90;;;15.30;99.90;;;;;;4987665;28;20214;-70
2023/05/11 03:26:09;;;;;;;9.57;8.57;;;15.20;99.90;;;;;;4988010;28;20220;-71
2023/05/11 03:28:40;;;;;;;9.23;8.53;;;15.20;99.90;;;;;;4987753;28;20755;-71
2023/05/11 03:31:07;;;;;;;9.37;8.47;;;15.20;99.90;;;;;;4987331;28;20600;-71
2023/05/11 03:33:34;;;;;;;8.83;8.17;;;15.20;99.90;;;;;;4987618;28;20214;-70
2023/05/11 03:36:03;;;;;;;8.73;7.87;;;15.20;99.90;;;;;;4987026;28;20433;-71
2023/05/11 03:38:31;;;;;;;7.57;6.97;;;15.10;99.90;;;;;;4987251;28;20300;-70
2023/05/11 03:40:58;;;;;;;8.23;7.57;;;15.20;99.90;;;;;;4987214;28;20216;-71
2023/05/11 03:43:28;;;;;;;10.07;7.40;;;15.10;99.90;;;;;;4986818;28;20297;-71
2023/05/11 03:45:57;;;;;;;7.40;6.80;;;15.20;99.90;;;;;;4986876;28;20776;-70
2023/05/11 03:48:24;;;;;;;7.20;6.60;;;15.20;99.90;;;;;;4987179;28;20214;-71
2023/05/11 03:50:51;;;;;;;7.07;6.57;;;15.20;99.90;;;;;;4987060;28;20656;-71
2023/05/11 03:53:19;;;;;;;7.00;6.30;;;15.30;99.90;;;;;;4986820;28;20700;-71
2023/05/11 03:55:46;;;;;;;6.80;6.30;;;15.30;99.90;;;;;;4986447;28;20257;-71
2023/05/11 03:58:13;;;;;;;7.50;6.37;;;15.30;99.90;;;;;;4986516;28;20218;-71
2023/05/11 04:00:41;;;;;;;7.43;6.57;;;15.20;99.90;;;;;;4986741;28;20210;-71
2023/05/11 04:03:11;;;;;;;6.97;6.37;;;15.20;99.90;;;;;;4986616;28;20337;-71
2023/05/11 04:05:38;;;;;;;7.20;6.37;;;15.20;99.90;;;;;;4986571;28;20731;-70
2023/05/11 04:08:05;;;;;;;6.80;6.20;;;15.20;99.90;;;;;;4986443;28;20210;-71
2023/05/11 04:10:32;;;;;;;6.37;5.87;;;15.20;99.90;;;;;;4983626;28;20695;-70
2023/05/11 04:12:59;;;;;;;7.03;6.00;;;15.20;99.90;;;;;;4986322;28;20819;-71
2023/05/11 04:15:26;;;;;;;8.50;5.83;;;15.20;99.90;;;;;;4986671;28;20300;-71
2023/05/11 04:17:53;;;;;;;5.60;5.23;;;15.20;99.90;;;;;;4986354;28;20285;-71
2023/05/11 04:20:21;;;;;;;5.57;5.17;;;15.20;99.90;;;;;;4986740;28;20349;-71
2023/05/11 04:22:48;;;;;;;5.77;5.37;;;15.20;99.90;;;;;;4986426;28;20742;-71
2023/05/11 04:25:16;;;;;;;5.60;5.10;;;15.20;99.90;;;;;;4986500;28;20225;-71
2023/05/11 04:27:43;;;;;;;8.00;5.53;;;15.20;99.90;;;;;;4986316;28;20693;-71
2023/05/11 04:30:10;;;;;;;7.90;5.37;;;15.20;99.90;;;;;;4985959;28;20210;-71
2023/05/11 04:32:37;;;;;;;5.27;4.87;;;15.20;99.90;;;;;;4986627;28;20209;-71
2023/05/11 04:35:05;;;;;;;4.60;4.33;;;15.20;99.90;;;;;;4986447;28;20309;-71
2023/05/11 04:37:33;;;;;;;5.17;4.77;;;15.30;99.90;;;;;;4986284;28;20218;-71
2023/05/11 04:40:00;;;;;;;5.63;5.20;;;15.30;99.90;;;;;;4986214;28;20237;-71
2023/05/11 04:42:27;;;;;;;5.40;5.00;;;15.30;99.90;;;;;;4986678;28;20233;-71
2023/05/11 04:44:54;;;;;;;6.37;4.77;;;15.40;99.90;;;;;;4986392;28;20242;-71
2023/05/11 04:47:21;;;;;;;6.23;4.67;;;15.30;99.90;;;;;;4986242;28;20566;-71
2023/05/11 04:49:48;;;;;;;7.57;4.73;;;15.40;99.90;;;;;;4985711;28;20679;-70
2023/05/11 04:52:14;;;;;;;4.80;4.50;;;15.50;99.90;;;;;;4986240;28;20732;-71
2023/05/11 04:54:43;;;;;;;4.83;4.53;;;15.50;99.90;;;;;;4985745;28;20849;-71
2023/05/11 04:57:12;;;;;;;5.60;4.77;;;15.50;99.90;;;;;;4984984;28;20281;-71
2023/05/11 04:59:39;;;;;;;5.57;5.17;;;15.60;99.90;;;;;;4985981;28;20300;-70
2023/05/11 05:02:06;;;;;;;4.83;4.53;;;15.60;99.90;;;;;;4985571;28;20288;-71
2023/05/11 05:04:33;;;;;;;4.80;4.40;;;15.60;99.90;;;;;;4986139;28;20293;-71
2023/05/11 05:07:00;;;;;;;4.90;4.50;;;15.70;99.90;;;;;;4985637;28;20312;-71
2023/05/11 05:09:27;;;;;;;5.20;4.77;;;15.70;99.90;;;;;;4985688;28;20922;-71
2023/05/11 05:11:55;;;;;;;4.97;4.50;;;15.70;99.90;;;;;;4985756;28;21118;-71
2023/05/11 05:14:22;;;;;;;4.40;4.10;;;15.70;99.90;;;;;;4985710;28;20668;-71
2023/05/11 05:16:49;;;;;;;4.27;3.90;;;15.70;99.90;;;;;;4985565;28;20676;-71
2023/05/11 05:19:15;;;;;;;4.73;4.20;;;15.80;99.90;;;;;;4986065;28;20238;-71
2023/05/11 05:21:42;;;;;;;4.07;3.77;;;15.80;99.90;;;;;;4985905;28;20214;-71
2023/05/11 05:24:11;;;;;;;4.43;4.07;;;15.80;99.90;;;;;;4985615;28;20212;-71
2023/05/11 05:26:37;;;;;;;5.50;3.97;;;15.90;99.90;;;;;;4985808;28;20212;-71
2023/05/11 05:29:06;;;;;;;4.80;4.37;;;15.90;99.90;;;;;;4985489;28;20300;-71
2023/05/11 05:31:33;;;;;;;4.77;4.27;;;15.90;99.90;;;;;;4985836;28;20206;-71
2023/05/11 05:34:00;;;;;;;8.20;3.93;;;16.00;99.90;;;;;;4985596;28;20210;-71
2023/05/11 05:36:27;;;;;;;4.87;4.03;;;16.00;99.90;;;;;;4985710;28;20212;-71
2023/05/11 05:38:53;;;;;;;7.87;4.00;;;16.00;99.90;;;;;;4985344;28;20298;-71
2023/05/11 05:41:21;;;;;;;4.10;3.80;;;16.00;99.90;;;;;;4985867;28;20242;-71
2023/05/11 05:43:50;;;;;;;5.97;4.10;;;16.00;99.90;;;;;;4985760;28;20658;-71
2023/05/11 05:46:18;;;;;;;4.20;3.80;;;16.10;99.90;;;;;;4985964;28;20296;-70
2023/05/11 05:48:45;;;;;;;6.77;4.07;;;16.10;99.90;;;;;;4985658;28;20304;-70
2023/05/11 05:51:15;;;;;;;4.37;3.93;;;16.10;99.90;;;;;;4985595;28;20704;-70
2023/05/11 05:53:42;;;;;;;4.23;3.83;;;16.20;99.90;;;;;;4985626;28;20209;-70
2023/05/11 05:56:09;;;;;;;4.83;3.90;;;16.20;99.90;;;;;;4985340;28;20360;-70
2023/05/11 05:58:36;;;;;;;6.27;3.80;;;16.20;99.90;;;;;;4985517;28;20269;-71
2023/05/11 06:01:03;;;;;;;6.73;3.70;;;16.20;99.90;;;;;;4988776;28;20268;-71
2023/05/11 06:03:31;;;;;;;3.83;3.60;;;16.20;99.90;;;;;;4986637;28;20404;-71
2023/05/11 06:05:58;;;;;;;4.13;3.70;;;16.30;99.90;;;;;;4989238;28;20307;-70
2023/05/11 06:08:25;;;;;;;3.80;3.30;;;16.30;99.90;;;;;;4989281;28;20210;-70
2023/05/11 06:10:52;;;;;;;6.03;3.53;;;16.30;99.90;;;;;;4988831;28;20772;-70
2023/05/11 06:13:18;;;;;;;3.80;3.50;;;16.40;99.90;;;;;;4989007;28;20755;-70
2023/05/11 06:15:45;;;;;;;3.93;3.60;;;16.40;99.90;;;;;;4988636;28;20849;-70
2023/05/11 06:18:12;;;;;;;5.30;3.50;;;16.40;99.90;;;;;;4989030;28;20627;-70
2023/05/11 06:20:41;;;;;;;6.00;3.60;;;16.40;99.90;;;;;;4988814;28;20234;-70
2023/05/11 06:23:07;;;;;;;3.90;3.70;;;16.40;99.90;;;;;;4988328;28;20296;-70
2023/05/11 06:25:34;;;;;;;5.07;3.33;;;16.40;99.90;;;;;;4988401;28;20302;-70
2023/05/11 06:28:02;;;;;;;6.53;3.50;;;16.50;99.90;;;;;;4988678;28;20256;-70
2023/05/11 06:30:30;;;;;;;4.70;3.73;;;16.50;99.90;;;;;;4988922;28;20214;-70
2023/05/11 06:32:57;;;;;;;3.37;3.07;;;16.60;99.90;;;;;;4988676;28;20301;-71
2023/05/11 06:35:24;;;;;;;4.03;3.40;;;16.60;99.90;;;;;;4988957;28;20201;-70
2023/05/11 06:37:52;;;;;;;4.67;3.50;;;16.60;99.90;;;;;;4988833;28;20214;-71
2023/05/11 06:40:19;;;;;;;5.57;3.60;;;16.70;99.90;;;;;;4988718;28;20304;-71
2023/05/11 06:42:48;;;;;;;4.13;3.47;;;16.70;99.90;;;;;;4988532;28;20234;-71
2023/05/11 06:45:15;;;;;;;5.23;3.67;;;16.70;99.90;;;;;;4988771;28;20210;-71
2023/05/11 06:47:42;;;;;;;4.07;3.60;;;16.70;99.90;;;;;;4988398;28;20214;-71
2023/05/11 06:50:09;;;;;;;3.70;3.40;;;16.80;99.90;;;;;;4988214;28;20202;-71
2023/05/11 06:52:36;;;;;;;4.73;3.77;;;16.80;99.90;;;;;;4988577;28;20240;-71
2023/05/11 06:55:06;;;;;;;3.30;3.10;;;16.80;99.90;;;;;;4987630;28;20312;-71
2023/05/11 06:57:33;;;;;;;3.43;3.10;;;16.80;99.90;;;;;;4987745;28;20277;-71
2023/05/11 07:00:00;;;;;;;7.93;3.50;;;16.90;99.90;;;;;;4986330;28;20237;-71
2023/05/11 07:02:29;;;;;;;4.83;3.20;;;16.90;99.90;;;;;;4988279;28;20668;-71
2023/05/11 07:04:55;;;;;;;4.70;3.67;;;16.90;99.90;;;;;;4987835;28;20301;-71
2023/05/11 07:07:22;;;;;;;3.50;2.97;;;16.90;99.90;;;;;;4987667;28;20681;-71
2023/05/11 07:09:49;;;;;;;3.63;3.40;;;17.00;99.90;;;;;;4987877;28;20255;-71
2023/05/11 07:12:18;;;;;;;3.60;2.90;;;17.00;99.90;;;;;;4987012;28;20216;-71
2023/05/11 07:14:44;;;;;;;3.80;3.33;;;17.10;99.90;;;;;;4988044;28;20293;-71
2023/05/11 07:17:11;;;;;;;3.60;3.23;;;17.10;99.90;;;;;;4987517;28;20289;-71
2023/05/11 07:19:39;;;;;;;4.00;3.10;;;17.10;99.90;;;;;;4987683;28;20676;-73
2023/05/11 07:22:06;;;;;;;3.20;3.00;;;17.10;99.90;;;;;;4987381;28;20206;-71
2023/05/11 07:24:33;;;;;;;4.00;3.50;;;17.20;99.90;;;;;;4987384;28;20317;-70
2023/05/11 07:27:00;;;;;;;3.03;2.83;;;17.20;99.90;;;;;;4987286;28;20304;-71
2023/05/11 07:29:29;;;;;;;3.57;3.10;;;17.30;99.90;;;;;;4987247;28;20305;-71
2023/05/11 07:31:56;;;;;;;2.87;2.70;;;17.30;99.90;;;;;;4987515;28;20304;-71
2023/05/11 07:34:23;;;;;;;4.73;3.50;;;17.30;99.90;;;;;;4987415;28;20272;-71
2023/05/11 07:36:50;;;;;;;3.37;2.87;;;17.30;99.90;;;;;;4987415;28;20304;-70
2023/05/11 07:39:16;;;;;;;4.17;3.00;;;17.40;99.90;;;;;;4987303;28;20555;-69
2023/05/11 07:41:43;;;;;;;4.57;2.80;;;17.40;99.90;;;;;;4987655;28;20680;-70
2023/05/11 07:44:10;;;;;;;5.57;3.10;;;17.50;99.90;;;;;;4986624;28;20670;-71
2023/05/11 07:46:39;;;;;;;3.27;2.70;;;17.50;99.90;;;;;;4987651;28;20214;-70
2023/05/11 07:49:07;;;;;;;3.20;2.43;;;17.50;99.90;;;;;;4987635;28;20237;-70
2023/05/11 07:51:34;;;;;;;3.13;2.30;;;17.60;99.90;;;;;;4987426;28;20708;-70
2023/05/11 07:54:01;;;;;;;5.27;2.53;;;17.60;99.90;;;;;;4987255;28;20321;-70
2023/05/11 07:56:28;;;;;;;3.07;2.60;;;17.60;99.90;;;;;;4987232;28;20329;-71
2023/05/11 07:58:55;;;;;;;2.50;2.40;;;17.70;99.90;;;;;;4987151;28;20214;-70
2023/05/11 08:01:22;;;;;;;2.77;2.57;;;17.70;99.90;;;;;;4986817;28;20288;-70
2023/05/11 08:03:50;;;;;;;2.77;2.60;;;17.80;99.90;;;;;;4986853;28;20245;-70
2023/05/11 08:06:17;;;;;;;3.20;2.97;;;17.90;99.90;;;;;;4986659;28;20249;-70
2023/05/11 08:08:44;;;;;;;5.00;2.43;;;17.90;99.90;;;;;;4986540;28;20210;-70
2023/05/11 08:11:11;;;;;;;5.27;2.40;;;18.00;99.90;;;;;;4986796;28;20797;-70
2023/05/11 08:13:38;;;;;;;2.80;2.60;;;18.00;99.90;;;;;;4986913;28;20312;-70
2023/05/11 08:16:06;;;;;;;2.93;2.50;;;18.00;99.90;;;;;;4986677;28;20236;-70
2023/05/11 08:18:33;;;;;;;4.20;2.07;;;18.10;99.90;;;;;;4986651;28;20225;-71
2023/05/11 08:21:01;;;;;;;2.60;2.40;;;18.10;99.90;;;;;;4986326;28;20892;-70
2023/05/11 08:23:28;;;;;;;11.90;3.20;;;18.20;99.90;;;;;;4986542;28;20238;-70
2023/05/11 08:25:55;;;;;;;2.57;2.37;;;18.30;99.90;;;;;;4986229;28;20301;-70
2023/05/11 08:28:22;;;;;;;2.50;2.30;;;18.30;99.90;;;;;;4986514;28;20946;-70
2023/05/11 08:30:54;;;;;;;3.00;2.80;;;18.40;99.90;;;;;;4986376;28;20329;-70
2023/05/11 08:33:21;;;;;;;4.40;2.67;;;18.40;99.90;;;;;;4986341;28;20297;-70
2023/05/11 08:35:48;;;;;;;4.70;2.80;;;18.40;99.90;;;;;;4986374;28;20212;-70
2023/05/11 08:38:17;;;;;;;3.20;2.90;;;18.50;99.90;;;;;;4986288;28;20642;-70
2023/05/11 08:40:46;;;;;;;11.03;2.87;;;18.50;99.90;;;;;;4986375;28;20206;-71
2023/05/11 08:43:15;;;;;;;2.97;2.70;;;18.60;99.90;;;;;;4986038;28;20317;-70
2023/05/11 08:45:43;;;;;;;2.70;2.50;;;18.70;99.90;;;;;;4986347;28;20209;-70
2023/05/11 08:48:10;;;;;;;3.03;2.73;;;18.80;99.90;;;;;;4985738;28;20210;-70
2023/05/11 08:50:37;;;;;;;2.83;2.47;;;18.80;99.90;;;;;;4985768;28;20387;-70
2023/05/11 08:53:04;;;;;;;5.40;2.90;;;18.80;99.90;;;;;;4985753;28;20252;-70
2023/05/11 08:55:34;;;;;;;2.47;2.27;;;18.90;99.90;;;;;;4985359;28;20327;-71
2023/05/11 08:58:04;;;;;;;2.80;2.60;;;18.90;99.90;;;;;;4986206;28;20222;-70
2023/05/11 09:00:32;;;;;;;3.10;2.50;;;19.00;99.90;;;;;;4985975;28;20306;-70
2023/05/11 09:02:59;;;;;;;3.70;2.77;;;19.00;99.90;;;;;;4986010;28;20292;-71
2023/05/11 09:05:27;;;;;;;7.03;2.75;;;19.10;99.90;;;;;;4986203;28;20736;-71
2023/05/11 09:07:59;;;;;;;4.57;2.60;;;19.10;99.90;;;;;;4986304;28;20220;-71
2023/05/11 09:10:26;;;;;;;3.50;2.50;;;19.20;99.90;;;;;;4985604;28;20681;-71
2023/05/11 09:12:54;;;;;;;4.03;2.92;;;19.20;99.90;;;;;;4985694;28;20213;-71
2023/05/11 09:15:21;;;;;;;2.90;2.70;;;19.30;99.90;;;;;;4985877;28;20214;-70
2023/05/11 09:17:48;;;;;;;2.80;2.60;;;19.40;99.90;;;;;;4985881;28;20245;-70
2023/05/11 09:20:15;;;;;;;2.47;2.27;;;19.40;99.90;;;;;;4985760;28;20307;-70
2023/05/11 09:22:44;;;;;;;4.03;2.67;;;19.50;99.90;;;;;;4985636;28;20272;-71
2023/05/11 09:25:12;;;;;;;3.17;2.60;;;19.50;99.90;;;;;;4985342;28;20233;-70
2023/05/11 09:27:41;;;;;;;3.03;2.63;;;19.50;99.90;;;;;;4984129;28;20212;-71
2023/05/11 09:30:15;;;;;;;2.50;2.30;;;19.60;99.90;;;;;;4966084;28;20238;-71
2023/05/11 09:32:51;;;;;;;3.78;2.40;;;19.60;99.90;;;;;;4966295;28;20205;-71
2023/05/11 09:35:25;;;;;;;4.53;2.63;;;19.60;99.90;;;;;;4970480;28;20210;-71
2023/05/11 09:38:05;;;;;;;2.60;2.10;;;19.70;99.90;;;;;;4972526;28;20206;-71
2023/05/11 09:40:32;;;;;;;2.23;2.13;;;19.70;99.90;;;;;;4972668;28;20210;-71
2023/05/11 09:43:00;;;;;;;2.47;2.30;;;19.80;99.90;;;;;;4972915;28;20308;-71
2023/05/11 09:45:39;;;;;;;4.00;1.93;;;19.80;99.90;;;;;;4973219;28;20210;-71
2023/05/11 09:48:13;;;;;;;3.00;2.20;;;20.00;99.90;;;;;;4987577;28;20806;-71
2023/05/11 09:50:40;;;;;;;2.37;2.20;;;20.10;99.90;;;;;;4991644;28;20621;-71
2023/05/11 09:53:07;;;;;;;4.82;2.38;;;20.20;99.90;;;;;;4992097;28;20312;-71
2023/05/11 09:55:34;;;;;;;5.25;2.20;;;20.20;99.90;;;;;;4991614;28;20316;-71
2023/05/11 09:58:01;;;;;;;3.40;2.08;;;20.20;99.90;;;;;;4991560;28;20633;-71
2023/05/11 10:00:28;;;;;;;2.47;2.30;;;20.30;99.90;;;;;;4991916;28;20302;-71
2023/05/11 10:03:04;;;;;;;2.40;2.20;;;20.50;99.90;;;;;;4991530;28;20307;-71
2023/05/11 10:05:32;;;;;;;4.18;2.40;;;20.50;99.80;;;;;;4991450;28;20731;-71
2023/05/11 10:08:00;;;;;;;2.38;2.28;;;20.60;99.20;;;;;;4991435;28;20305;-71
2023/05/11 10:10:29;;;;;;;4.40;2.30;;;20.60;99.50;;;;;;4991648;28;20212;-71
2023/05/11 10:12:57;;;;;;;2.20;2.10;;;20.60;99.10;;;;;;4991847;28;20214;-71
2023/05/11 10:15:27;;;;;;;4.50;2.70;;;20.70;99.00;;;;;;4991621;28;20308;-71
2023/05/11 10:17:55;;;;;;;4.85;2.83;;;20.80;99.00;;;;;;4991173;28;20217;-71
2023/05/11 10:20:24;;;;;;;4.35;2.22;;;20.80;98.90;;;;;;4991935;28;20214;-71
2023/05/11 10:22:53;;;;;;;3.00;2.40;;;20.80;98.90;;;;;;4991847;28;20250;-71
2023/05/11 10:25:22;;;;;;;2.25;2.10;;;20.90;99.10;;;;;;4991749;28;20236;-71
2023/05/11 10:27:51;;;;;;;3.88;1.95;;;21.00;98.70;;;;;;4991795;28;20304;-71
2023/05/11 10:30:18;;;;;;;2.15;2.05;;;21.00;97.50;;;;;;4991690;28;20637;-70
2023/05/11 10:32:46;;;;;;;2.35;2.15;;;21.10;97.40;;;;;;4991258;28;20249;-70
2023/05/11 10:35:13;;;;;;;2.53;2.20;;;21.20;97.50;;;;;;4991244;28;20209;-70
2023/05/11 10:37:42;;;;;;;2.00;1.90;;;21.20;97.50;;;;;;4991904;28;20209;-70
2023/05/11 10:40:10;;;;;;;3.47;2.50;;;21.10;97.60;;;;;;4991369;28;20217;-70
2023/05/11 10:43:13;;;;;;;2.65;2.08;;;21.20;98.00;;;;;;4990370;28;20206;-70
2023/05/11 10:45:51;;;;;;;2.20;2.10;;;21.40;97.60;;;;;;4968693;28;20210;-72
2023/05/11 10:48:43;;;;;;;1.73;1.63;;;21.50;97.40;;;;;;4969033;28;20293;-70
2023/05/11 10:51:29;;;;;;;2.00;1.90;;;21.60;96.20;;;;;;4968700;28;20768;-70
2023/05/11 10:54:14;;;;;;;2.67;1.80;;;21.70;96.10;;;;;;4968742;28;20775;-71
2023/05/11 10:57:10;;;;;;;7.75;1.73;;;21.80;96.40;;;;;;4968792;28;20242;-70
2023/05/11 11:00:16;;;;;;;6.60;2.20;;;21.90;95.30;;;;;;4986089;28;20214;-70
2023/05/11 11:02:44;;;;;;;1.80;1.67;;;22.00;94.60;;;;;;4987978;28;20205;-71
2023/05/11 11:05:16;;;;;;;2.30;1.75;;;22.10;94.70;;;;;;4988332;28;20321;-71
2023/05/11 11:08:08;;;;;;;2.28;1.67;;;22.20;94.80;;;;;;4988483;28;20198;-71
2023/05/11 11:10:38;;;;;;;2.85;1.90;;;22.30;94.30;;;;;;4982461;28;20674;-71
2023/05/11 11:13:07;;;;;;;2.08;1.77;;;22.40;94.40;;;;;;4988269;28;20325;-70
2023/05/11 11:16:08;;;;;;;2.15;1.90;;;22.50;94.40;;;;;;4987864;28;20217;-71
2023/05/11 11:18:36;;;;;;;1.83;1.73;;;22.50;94.00;;;;;;4968518;28;20245;-71
2023/05/11 11:21:04;;;;;;;2.42;1.90;;;22.40;94.00;;;;;;4967997;28;20215;-70
2023/05/11 11:23:46;;;;;;;1.83;1.73;;;22.30;94.20;;;;;;4968224;28;20211;-70
2023/05/11 11:26:17;;;;;;;3.67;2.05;;;22.30;94.10;;;;;;4968366;28;20787;-70
2023/05/11 11:29:12;;;;;;;2.58;2.17;;;22.20;94.10;;;;;;4968329;28;20277;-71
2023/05/11 11:31:42;;;;;;;2.75;1.70;;;22.10;93.70;;;;;;4968280;28;20673;-71
2023/05/11 11:34:36;;;;;;;1.90;1.80;;;22.20;92.70;;;;;;4967986;28;20214;-71
2023/05/11 11:37:08;;;;;;;1.75;1.60;;;22.40;92.80;;;;;;4944052;28;20225;-70
2023/05/11 11:39:58;;;;;;;1.70;1.60;;;22.50;93.00;;;;;;4974378;28;20292;-70
2023/05/11 11:42:40;;;;;;;4.03;2.22;;;22.50;93.60;;;;;;4987209;28;20923;-70
2023/05/11 11:45:36;;;;;;;2.55;1.95;;;22.50;92.50;;;;;;4987248;28;20334;-71
2023/05/11 11:48:20;;;;;;;1.60;1.58;;;22.40;93.20;;;;;;4974326;28;20245;-71
2023/05/11 11:50:48;;;;;;;2.03;1.92;;;22.40;93.20;;;;;;4987367;28;20337;-71
2023/05/11 11:54:04;;;;;;;4.32;1.77;;;22.30;93.10;;;;;;4986811;28;20305;-71
2023/05/11 11:56:44;;;;;;;2.97;1.70;;;22.30;93.80;;;;;;4986988;28;20249;-71
2023/05/11 11:59:15;;;;;;;3.38;2.17;;;22.40;92.90;;;;;;4986732;28;20224;-71
2023/05/11 12:01:44;;;;;;;2.38;1.80;;;22.70;92.90;;;;;;4987373;28;20231;-71
2023/05/11 12:04:51;;;;;;;3.70;1.65;;;23.00;92.50;;;;;;4986911;28;20230;-71
2023/05/11 12:07:21;;;;;;;3.33;1.90;;;23.30;92.60;;;;;;4987139;28;20316;-71
2023/05/11 12:09:48;;;;;;;3.65;1.83;;;23.50;92.20;;;;;;4986868;28;20206;-70
2023/05/11 12:12:18;;;;;;;3.22;1.98;;;23.60;92.50;;;;;;4986944;28;20275;-71
2023/05/11 12:14:48;;;;;;;8.05;2.38;;;23.50;92.10;;;;;;4986984;28;20218;-70
2023/05/11 12:17:22;;;;;;;2.50;1.95;;;23.40;92.20;;;;;;4977111;28;20206;-71
2023/05/11 12:19:49;;;;;;;3.10;1.83;;;23.30;92.90;;;;;;4967530;28;20225;-71
2023/05/11 12:22:22;;;;;;;4.00;1.60;;;23.20;92.30;;;;;;4967101;28;20253;-70
2023/05/11 12:24:49;;;;;;;3.17;1.77;;;23.00;92.30;;;;;;4967010;28;20226;-71
2023/05/11 12:27:17;;;;;;;2.45;1.90;;;22.80;91.80;;;;;;4967423;28;20238;-71
2023/05/11 12:29:50;;;;;;;3.78;1.65;;;22.70;91.50;;;;;;4984966;28;20249;-71
2023/05/11 12:32:26;;;;;;;2.58;1.70;;;22.70;91.50;;;;;;4986662;28;20218;-70
2023/05/11 12:35:00;;;;;;;2.60;1.70;;;22.60;91.00;;;;;;4986128;28;20218;-70
2023/05/11 12:37:27;;;;;;;2.33;2.13;;;22.50;91.10;;;;;;4986291;28;20714;-70
2023/05/11 12:39:55;;;;;;;2.20;1.63;;;22.50;90.70;;;;;;4986162;28;20305;-70
2023/05/11 12:42:22;;;;;;;6.05;1.60;;;22.60;90.50;;;;;;4986232;28;21032;-71
2023/05/11 12:44:51;;;;;;;1.60;1.50;;;22.60;91.00;;;;;;4986016;28;20240;-70
2023/05/11 12:47:18;;;;;;;2.83;1.80;;;22.80;91.40;;;;;;4986078;28;21089;-71
2023/05/11 12:49:45;;;;;;;6.00;2.00;;;22.90;91.90;;;;;;4980594;28;20209;-70
2023/05/11 12:52:13;;;;;;;1.73;1.63;;;23.20;91.90;;;;;;4966686;28;20322;-70
2023/05/11 12:54:42;;;;;;;4.93;1.92;;;23.50;91.50;;;;;;4971851;28;20202;-71
2023/05/11 12:57:23;;;;;;;2.75;1.73;;;23.80;91.20;;;;;;4986224;28;20210;-71
2023/05/11 13:00:06;;;;;;;2.88;1.70;;;23.70;90.50;;;;;;4985791;28;20202;-71